Terminal Aerodrome Forecast
Issued by NWS

Home | Current Version | Previous Version | Graphics & Text | Print | Product List | Glossary On
Versions: 1 2 3 4 5 6 7 8 9 10 11 12 13 14
000
FTUS43 KGRB 241140
TAFRHI
TAF
KRHI 241140Z 2412/2512 18006KT P6SM SCT005 BKN040
      TEMPO 2412/2414 3SM -SHRA BR BKN005
     FM241400 25007KT P6SM SCT020 BKN050
      TEMPO 2414/2416 BKN020
     FM241600 26008G15KT P6SM SCT030
     FM242000 28010G17KT P6SM SCT200
     FM250200 29006KT P6SM FEW250=

USA.gov is the U.S. government's official web portal to all federal, state and local government web resources and services.